< Typhoon 201003 2010 Season Typhoon 201005 >
Typhoon 201004 (DIANMU)
General InformationTrack Information on Google MapsDetailed Wind InformationAccess Analytics MapList of All Images || NewsDisaster Info.WeblogTrackbackTyphoon FrontTwiphoonTyphoon Now!Typhoon ImaginationResourceGoogle EarthGE AnimationAtom FeedGeoJSON
Detalied Best Track (Time Zone = UTC)
Year Month Day Hour Lat. Long. Pressure (hPa) Wind (kt) Class Image Chart
2010 8 7 00 20.7 124.2 1002 0 2 Image Chart
2010 8 7 06 21.0 124.3 1000 0 2 Image Chart
2010 8 7 12 21.2 124.4 1000 0 2 Image Chart
2010 8 7 18 21.6 124.4 998 0 2 Image Chart
2010 8 8 00 22.3 124.6 998 0 2 Image Chart
2010 8 8 06 22.9 124.8 996 0 2 Image Chart
2010 8 8 12 23.6 124.9 994 35 3 Image Chart
2010 8 8 15 23.9 125.0 992 40 3 Image Chart
2010 8 8 18 24.3 125.2 990 45 3 Image Chart
2010 8 8 21 24.8 125.6 990 45 3 Image Chart
2010 8 9 00 25.6 125.7 990 45 3 Image Chart
2010 8 9 03 26.4 125.6 985 50 4 Image Chart
2010 8 9 06 27.1 125.6 985 50 4 Image Chart
2010 8 9 09 28.0 125.5 985 50 4 Image Chart
2010 8 9 12 28.8 125.2 985 50 4 Image Chart
2010 8 9 18 29.7 125.1 985 50 4 Image Chart
2010 8 10 00 31.0 125.1 985 50 4 Image Chart
2010 8 10 06 32.1 125.2 985 50 4 Image Chart
2010 8 10 12 33.0 125.6 985 50 4 Image Chart
2010 8 10 15 33.7 126.2 985 50 4 Image Chart
2010 8 10 18 34.0 126.6 985 50 4 Image Chart
2010 8 10 21 34.4 127.2 990 45 3 Image Chart
2010 8 11 00 34.8 128.2 990 45 3 Image Chart
2010 8 11 03 35.2 129.1 992 45 3 Image Chart
2010 8 11 06 35.7 130.0 992 45 3 Image Chart
2010 8 11 09 36.1 130.8 992 45 3 Image Chart
2010 8 11 12 36.4 131.7 992 45 3 Image Chart
2010 8 11 15 36.7 132.7 992 45 3 Image Chart
2010 8 11 18 37.1 133.7 994 40 3 Image Chart
2010 8 11 21 37.6 134.8 994 40 3 Image Chart
2010 8 12 00 38.2 136.0 994 40 3 Image Chart
2010 8 12 03 38.7 137.3 994 40 3 Image Chart
2010 8 12 06 39.2 139.0 994 40 3 Image Chart
2010 8 12 08 39.5 140.1 994 40 3 Image Chart
2010 8 12 09 39.5 140.7 994 40 3 Image Chart
2010 8 12 12 39.6 142.7 996 35 3 Image Chart
2010 8 12 15 40.1 144.7 996 35 3 Image Chart
2010 8 12 18 41.0 146.0 994 0 6 Image Chart
2010 8 13 00 43.4 151.2 998 0 6 Image Chart
Japan Meteorological Agency Best Track Data | Correction Date : 2010-09-24
< Typhoon 201003 2010 Season Typhoon 201005 >

Help